createdAt,value
2023-02-13T00:00:44.185Z,22.30
2023-02-13T00:03:11.232Z,22.40
2023-02-13T00:05:38.482Z,21.40
2023-02-13T00:08:05.523Z,22.13
2023-02-13T00:10:33.162Z,19.60
2023-02-13T00:13:00.390Z,21.03
2023-02-13T00:15:27.519Z,21.47
2023-02-13T00:17:54.476Z,20.30
2023-02-13T00:20:21.482Z,20.63
2023-02-13T00:22:48.516Z,20.20
2023-02-13T00:25:15.465Z,21.10
2023-02-13T00:27:42.449Z,19.73
2023-02-13T00:30:10.216Z,20.10
2023-02-13T00:32:37.684Z,20.53
2023-02-13T00:35:04.829Z,18.53
2023-02-13T00:37:33.046Z,19.97
2023-02-13T00:39:59.919Z,20.20
2023-02-13T00:42:26.869Z,19.97
2023-02-13T00:44:54.936Z,18.53
2023-02-13T00:47:21.952Z,18.27
2023-02-13T00:49:49.772Z,20.67
2023-02-13T00:52:16.728Z,18.90
2023-02-13T00:54:43.693Z,19.80
2023-02-13T00:57:10.628Z,19.13
2023-02-13T00:59:37.486Z,17.93
2023-02-13T01:02:04.829Z,19.23
2023-02-13T01:04:31.762Z,17.80
2023-02-13T01:06:59.105Z,17.13
2023-02-13T01:09:26.432Z,17.43
2023-02-13T01:11:53.622Z,16.37
2023-02-13T01:14:21.094Z,17.60
2023-02-13T01:16:49.553Z,16.33
2023-02-13T01:19:17.032Z,15.80
2023-02-13T01:21:44.844Z,16.50
2023-02-13T01:24:11.901Z,17.00
2023-02-13T01:26:39.324Z,17.30
2023-02-13T01:29:06.954Z,15.93
2023-02-13T01:31:34.465Z,16.40
2023-02-13T01:34:01.520Z,15.13
2023-02-13T01:36:28.452Z,16.10
2023-02-13T01:38:57.611Z,15.63
2023-02-13T01:41:28.520Z,17.00
2023-02-13T01:43:58.035Z,15.90
2023-02-13T01:46:36.028Z,16.10
2023-02-13T01:49:18.746Z,15.77
2023-02-13T01:51:49.659Z,16.37
2023-02-13T01:54:22.208Z,16.50
2023-02-13T01:56:54.107Z,16.87
2023-02-13T01:59:28.408Z,16.70
2023-02-13T02:01:57.257Z,17.67
2023-02-13T02:04:32.384Z,17.63
2023-02-13T02:07:07.156Z,16.67
2023-02-13T02:09:39.357Z,17.30
2023-02-13T02:12:13.054Z,17.47
2023-02-13T02:14:41.287Z,17.10
2023-02-13T02:17:08.849Z,17.77
2023-02-13T02:20:00.607Z,16.80
2023-02-13T02:22:41.252Z,15.70
2023-02-13T02:25:32.049Z,16.77
2023-02-13T02:28:01.809Z,17.60
2023-02-13T02:30:50.956Z,15.60
2023-02-13T02:33:27.724Z,16.77
2023-02-13T02:35:57.879Z,15.13
2023-02-13T02:38:48.253Z,16.33
2023-02-13T02:41:43.037Z,16.13
2023-02-13T02:44:17.052Z,15.03
2023-02-13T02:47:28.915Z,16.17
2023-02-13T02:50:16.815Z,14.67
2023-02-13T02:52:49.470Z,16.23
2023-02-13T02:55:31.024Z,17.67
2023-02-13T02:58:45.404Z,15.83
2023-02-13T03:01:36.981Z,18.53
2023-02-13T03:04:24.528Z,17.00
2023-02-13T03:07:00.101Z,17.50
2023-02-13T03:09:51.091Z,16.53
2023-02-13T03:12:40.749Z,16.23
2023-02-13T03:15:09.108Z,15.53
2023-02-13T03:17:55.610Z,16.53
2023-02-13T03:21:09.047Z,16.73
2023-02-13T03:23:54.248Z,15.30
2023-02-13T03:26:21.175Z,17.27
2023-02-13T03:29:09.826Z,16.60
2023-02-13T03:31:54.363Z,14.97
2023-02-13T03:34:25.265Z,14.80
2023-02-13T03:37:21.600Z,15.00
2023-02-13T03:40:00.937Z,13.13
2023-02-13T03:42:41.246Z,14.87
2023-02-13T03:45:49.482Z,13.30
2023-02-13T03:48:43.334Z,13.77
2023-02-13T03:51:13.191Z,13.10
2023-02-13T03:53:42.645Z,12.77
2023-02-13T03:56:30.233Z,14.33
2023-02-13T03:59:18.211Z,12.80
2023-02-13T04:01:54.446Z,14.30
2023-02-13T04:04:34.976Z,12.60
2023-02-13T04:07:29.449Z,12.20
2023-02-13T04:09:59.485Z,11.63
2023-02-13T04:12:32.449Z,12.00
2023-02-13T04:15:14.697Z,12.17
2023-02-13T04:18:14.205Z,11.57
2023-02-13T04:20:41.623Z,10.70
2023-02-13T04:23:10.347Z,11.03
2023-02-13T04:25:40.171Z,11.07
2023-02-13T04:28:07.682Z,9.90
2023-02-13T04:30:34.728Z,10.27
2023-02-13T04:33:01.947Z,8.83
2023-02-13T04:35:28.867Z,10.23
2023-02-13T04:37:55.933Z,9.40
2023-02-13T04:40:23.241Z,10.07
2023-02-13T04:42:50.240Z,10.40
2023-02-13T04:45:17.433Z,9.70
2023-02-13T04:47:49.706Z,8.80
2023-02-13T04:50:16.524Z,9.37
2023-02-13T04:52:43.237Z,9.40
2023-02-13T04:55:09.929Z,10.20
2023-02-13T04:57:36.653Z,10.20
2023-02-13T05:00:05.624Z,10.60
2023-02-13T05:02:32.913Z,9.70
2023-02-13T05:05:00.056Z,9.30
2023-02-13T05:07:26.881Z,9.80
2023-02-13T05:09:53.841Z,8.50
2023-02-13T05:12:20.479Z,9.60
2023-02-13T05:14:47.586Z,10.00
2023-02-13T05:17:14.511Z,10.07
2023-02-13T05:19:41.356Z,8.77
2023-02-13T05:22:28.106Z,9.80
2023-02-13T05:24:55.033Z,9.77
2023-02-13T05:27:22.191Z,9.70
2023-02-13T05:29:49.205Z,12.33
2023-02-13T05:32:16.177Z,9.60
2023-02-13T05:34:43.511Z,11.70
2023-02-13T05:37:10.428Z,11.30
2023-02-13T05:39:37.733Z,10.60
2023-02-13T05:42:04.955Z,10.20
2023-02-13T05:44:32.575Z,11.57
2023-02-13T05:46:59.554Z,10.20
2023-02-13T05:49:26.546Z,10.40
2023-02-13T05:51:56.605Z,9.60
2023-02-13T05:54:30.453Z,9.70
2023-02-13T05:56:59.018Z,10.00
2023-02-13T05:59:27.125Z,10.80
2023-02-13T06:01:54.784Z,10.13
2023-02-13T06:04:22.433Z,10.13
2023-02-13T06:06:49.487Z,11.10
2023-02-13T06:09:16.602Z,9.23
2023-02-13T06:11:43.581Z,10.27
2023-02-13T06:14:12.299Z,9.93
2023-02-13T06:16:39.595Z,10.27
2023-02-13T06:19:07.380Z,9.80
2023-02-13T06:21:38.949Z,10.93
2023-02-13T06:24:07.430Z,10.20
2023-02-13T06:26:35.427Z,10.13
2023-02-13T06:29:02.472Z,10.37
2023-02-13T06:31:29.487Z,9.80
2023-02-13T06:33:56.427Z,9.93
2023-02-13T06:36:23.348Z,10.17
2023-02-13T06:38:50.289Z,11.90
2023-02-13T06:41:18.920Z,10.30
2023-02-13T06:43:46.222Z,9.20
2023-02-13T06:46:13.797Z,10.60
2023-02-13T06:48:40.968Z,11.40
2023-02-13T06:51:08.484Z,11.30
2023-02-13T06:53:35.624Z,10.23
2023-02-13T06:56:06.448Z,9.50
2023-02-13T06:58:34.713Z,10.20
2023-02-13T07:01:03.860Z,11.00
2023-02-13T07:03:31.364Z,10.50
2023-02-13T07:05:58.372Z,10.20
2023-02-13T07:08:25.241Z,10.30
2023-02-13T07:10:52.316Z,10.07
2023-02-13T07:13:19.249Z,10.57
2023-02-13T07:15:52.669Z,10.20
2023-02-13T07:18:31.181Z,11.80
2023-02-13T07:20:59.114Z,10.33
2023-02-13T07:23:26.282Z,11.77
2023-02-13T07:25:53.259Z,11.20
2023-02-13T07:28:20.272Z,11.40
2023-02-13T07:30:47.290Z,9.50
2023-02-13T07:33:14.172Z,10.70
2023-02-13T07:35:47.261Z,11.57
2023-02-13T07:38:14.496Z,10.30
2023-02-13T07:40:41.643Z,12.27
2023-02-13T07:43:08.862Z,11.17
2023-02-13T07:45:35.944Z,11.43
2023-02-13T07:48:02.950Z,11.20
2023-02-13T07:50:30.337Z,12.07
2023-02-13T07:52:59.708Z,11.43
2023-02-13T07:55:27.625Z,12.50
2023-02-13T07:57:54.690Z,11.90
2023-02-13T08:00:22.680Z,12.27
2023-02-13T08:02:49.626Z,11.10
2023-02-13T08:05:16.965Z,12.17
2023-02-13T08:07:43.941Z,12.13
2023-02-13T08:10:31.921Z,11.60
2023-02-13T08:12:59.001Z,11.27
2023-02-13T08:15:26.112Z,12.20
2023-02-13T08:17:53.455Z,11.67
2023-02-13T08:20:20.580Z,11.33
2023-02-13T08:22:47.547Z,11.37
2023-02-13T08:25:14.514Z,10.90
2023-02-13T08:27:41.753Z,11.57
2023-02-13T08:30:10.549Z,12.17
2023-02-13T08:32:53.104Z,11.20
2023-02-13T08:35:20.909Z,12.17
2023-02-13T08:37:47.955Z,12.03
2023-02-13T08:40:15.056Z,11.00
2023-02-13T08:42:41.980Z,11.27
2023-02-13T08:45:11.840Z,10.80
2023-02-13T08:47:40.007Z,11.00
2023-02-13T08:50:08.158Z,11.00
2023-02-13T08:52:35.351Z,12.00
2023-02-13T08:55:03.767Z,11.20
2023-02-13T08:57:31.426Z,10.90
2023-02-13T08:59:58.752Z,10.13
2023-02-13T09:02:25.986Z,10.90
2023-02-13T09:04:52.961Z,10.27
2023-02-13T09:07:20.116Z,10.43
2023-02-13T09:09:47.044Z,9.70
2023-02-13T09:12:17.221Z,10.53
2023-02-13T09:14:44.367Z,11.03
2023-02-13T09:17:11.377Z,9.33
2023-02-13T09:19:38.283Z,10.50
2023-02-13T09:22:05.299Z,9.83
2023-02-13T09:24:32.178Z,11.53
2023-02-13T09:26:59.051Z,10.47
2023-02-13T09:29:30.314Z,10.13
2023-02-13T09:31:57.581Z,11.17
2023-02-13T09:34:25.416Z,10.97
2023-02-13T09:36:55.344Z,11.17
2023-02-13T09:39:22.370Z,11.33
2023-02-13T09:41:53.542Z,11.10
2023-02-13T09:44:36.039Z,9.90
2023-02-13T09:47:14.937Z,9.73
2023-02-13T09:49:47.009Z,11.03
2023-02-13T09:52:15.054Z,10.87
2023-02-13T09:54:42.114Z,10.27
2023-02-13T09:57:23.127Z,9.90
2023-02-13T10:00:12.112Z,10.73
2023-02-13T10:02:48.224Z,9.80
2023-02-13T10:05:27.127Z,10.93
2023-02-13T10:07:57.176Z,9.20
2023-02-13T10:10:36.127Z,10.00
2023-02-13T10:13:55.793Z,10.50
2023-02-13T10:16:34.583Z,9.17
2023-02-13T10:19:13.014Z,9.40
2023-02-13T10:21:58.028Z,9.60
2023-02-13T10:24:33.077Z,9.30
2023-02-13T10:27:03.458Z,9.80
2023-02-13T10:30:05.235Z,9.60
2023-02-13T10:33:19.838Z,9.90
2023-02-13T10:36:10.856Z,9.33
2023-02-13T10:38:45.487Z,9.23
2023-02-13T10:41:32.162Z,10.07
2023-02-13T10:43:59.164Z,9.60
2023-02-13T10:46:31.469Z,10.10
2023-02-13T10:48:58.345Z,9.87
2023-02-13T10:51:40.276Z,9.40
2023-02-13T10:54:16.809Z,10.07
2023-02-13T10:57:20.843Z,8.80
2023-02-13T10:59:53.697Z,8.90
2023-02-13T11:02:32.953Z,9.50
2023-02-13T11:05:05.341Z,8.97
2023-02-13T11:07:32.596Z,9.10
2023-02-13T11:10:08.395Z,8.77
2023-02-13T11:12:35.330Z,10.60
2023-02-13T11:15:07.428Z,8.77
2023-02-13T11:17:46.670Z,9.97
2023-02-13T11:20:37.682Z,9.40
2023-02-13T11:23:29.596Z,9.17
2023-02-13T11:26:12.307Z,8.00
2023-02-13T11:28:48.356Z,9.90
2023-02-13T11:31:15.554Z,8.43
2023-02-13T11:33:43.010Z,10.40
2023-02-13T11:36:24.683Z,9.20
2023-02-13T11:39:22.340Z,9.90
2023-02-13T11:41:52.885Z,10.03
2023-02-13T11:44:30.229Z,10.27
2023-02-13T11:47:00.697Z,8.97
2023-02-13T11:49:33.865Z,9.80
2023-02-13T11:52:03.309Z,9.43
2023-02-13T11:54:39.014Z,9.00
2023-02-13T11:57:33.727Z,9.50
2023-02-13T12:00:20.284Z,9.40
2023-02-13T12:02:50.736Z,9.60
2023-02-13T12:05:22.145Z,8.50
2023-02-13T12:07:49.544Z,8.37
2023-02-13T12:10:24.173Z,8.80
2023-02-13T12:13:00.102Z,9.40
2023-02-13T12:15:30.725Z,8.90
2023-02-13T12:18:13.615Z,9.33
2023-02-13T12:20:53.689Z,8.77
2023-02-13T12:23:23.711Z,8.07
2023-02-13T12:26:05.764Z,8.80
2023-02-13T12:28:45.271Z,9.20
2023-02-13T12:31:12.112Z,9.07
2023-02-13T12:33:57.602Z,8.97
2023-02-13T12:36:52.780Z,8.40
2023-02-13T12:39:30.707Z,9.60
2023-02-13T12:42:28.147Z,9.40
2023-02-13T12:45:14.978Z,8.73
2023-02-13T12:47:57.169Z,9.17
2023-02-13T12:50:33.380Z,8.30
2023-02-13T12:53:22.372Z,8.47
2023-02-13T12:56:09.840Z,8.27
2023-02-13T12:58:55.417Z,8.10
2023-02-13T13:01:58.331Z,8.37
2023-02-13T13:04:44.528Z,7.90
2023-02-13T13:07:33.108Z,8.63
2023-02-13T13:10:23.272Z,8.93
2023-02-13T13:13:17.291Z,8.10
2023-02-13T13:16:16.720Z,8.50
2023-02-13T13:19:11.966Z,8.70
2023-02-13T13:22:12.807Z,8.20
2023-02-13T13:24:50.379Z,8.77
2023-02-13T13:27:32.289Z,9.00
2023-02-13T13:30:04.038Z,8.50
2023-02-13T13:32:31.882Z,9.20
2023-02-13T13:34:59.306Z,9.23
2023-02-13T13:38:07.657Z,8.50
2023-02-13T13:40:48.945Z,8.53
2023-02-13T13:43:26.713Z,8.20
2023-02-13T13:46:31.976Z,8.43
2023-02-13T13:49:02.025Z,8.67
2023-02-13T13:51:30.628Z,8.63
2023-02-13T13:54:06.585Z,8.63
2023-02-13T13:57:02.191Z,8.70
2023-02-13T13:59:37.901Z,10.03
2023-02-13T14:02:20.144Z,9.90
2023-02-13T14:05:21.462Z,9.70
2023-02-13T14:07:51.937Z,8.40
2023-02-13T14:10:21.911Z,8.30
2023-02-13T14:12:50.538Z,8.27
2023-02-13T14:15:42.424Z,8.43
2023-02-13T14:18:15.421Z,9.00
2023-02-13T14:20:51.573Z,9.27
2023-02-13T14:23:33.359Z,9.43
2023-02-13T14:26:15.627Z,8.43
2023-02-13T14:28:51.946Z,8.83
2023-02-13T14:31:29.602Z,9.10
2023-02-13T14:34:02.339Z,8.40
2023-02-13T14:36:35.276Z,8.60
2023-02-13T14:39:05.373Z,11.27
2023-02-13T14:41:56.139Z,8.73
2023-02-13T14:44:38.176Z,9.00
2023-02-13T14:47:32.108Z,9.53
2023-02-13T14:50:01.855Z,8.87
2023-02-13T14:52:35.763Z,8.80
2023-02-13T14:55:20.252Z,10.13
2023-02-13T14:57:54.271Z,11.43
2023-02-13T15:00:53.418Z,9.60
2023-02-13T15:03:29.569Z,9.57
2023-02-13T15:06:13.990Z,10.00
2023-02-13T15:08:50.672Z,10.40
2023-02-13T15:11:38.348Z,9.30
2023-02-13T15:14:22.543Z,10.37
2023-02-13T15:17:02.023Z,9.47
2023-02-13T15:19:29.361Z,9.47
2023-02-13T15:22:01.706Z,9.70
2023-02-13T15:24:46.649Z,10.93
2023-02-13T15:27:29.619Z,9.70
2023-02-13T15:30:03.519Z,10.10
2023-02-13T15:32:36.979Z,10.30
2023-02-13T15:35:23.115Z,9.10
2023-02-13T15:37:50.154Z,11.03
2023-02-13T15:40:23.080Z,9.93
2023-02-13T15:42:50.602Z,9.33
2023-02-13T15:45:18.945Z,10.13
2023-02-13T15:47:46.932Z,10.43
2023-02-13T15:50:34.349Z,10.40
2023-02-13T15:53:05.819Z,15.07
2023-02-13T15:55:36.730Z,11.60
2023-02-13T15:58:04.116Z,10.70
2023-02-13T16:00:34.368Z,14.37
2023-02-13T16:03:04.205Z,23.17
2023-02-13T16:05:40.645Z,24.40
2023-02-13T16:08:31.929Z,11.90
2023-02-13T16:11:31.054Z,34.47
2023-02-13T16:14:21.165Z,18.30
2023-02-13T16:16:53.136Z,19.83
2023-02-13T16:19:29.227Z,35.70
2023-02-13T16:21:59.684Z,19.10
2023-02-13T16:24:29.409Z,13.10
2023-02-13T16:26:56.633Z,14.20
2023-02-13T16:29:26.334Z,12.00
2023-02-13T16:32:02.794Z,11.23
2023-02-13T16:34:31.098Z,10.40
2023-02-13T16:36:58.116Z,9.87
2023-02-13T16:39:31.816Z,11.77
2023-02-13T16:42:00.216Z,10.10
2023-02-13T16:44:40.957Z,10.07
2023-02-13T16:47:23.459Z,11.73
2023-02-13T16:49:58.893Z,9.73
2023-02-13T16:52:30.024Z,9.97
2023-02-13T16:55:02.673Z,8.90
2023-02-13T16:57:35.642Z,9.40
2023-02-13T17:00:22.635Z,9.30
2023-02-13T17:02:50.782Z,10.40
2023-02-13T17:05:27.331Z,9.93
2023-02-13T17:07:59.657Z,10.47
2023-02-13T17:10:33.511Z,10.00
2023-02-13T17:13:23.678Z,10.20
2023-02-13T17:15:51.892Z,9.07
2023-02-13T17:18:18.820Z,9.90
2023-02-13T17:20:46.286Z,10.13
2023-02-13T17:23:23.272Z,9.70
2023-02-13T17:25:52.762Z,9.07
2023-02-13T17:28:26.843Z,9.93
2023-02-13T17:30:56.770Z,10.70
2023-02-13T17:33:29.882Z,13.97
2023-02-13T17:35:57.393Z,15.50
2023-02-13T17:38:24.677Z,13.27
2023-02-13T17:40:52.001Z,18.13
2023-02-13T17:43:20.217Z,13.43
2023-02-13T17:45:48.435Z,14.60
2023-02-13T17:48:15.680Z,16.83
2023-02-13T17:50:43.126Z,17.83
2023-02-13T17:53:29.953Z,16.20
2023-02-13T17:55:57.459Z,13.47
2023-02-13T17:58:24.728Z,13.20
2023-02-13T18:00:51.688Z,12.27
2023-02-13T18:03:18.733Z,11.20
2023-02-13T18:05:48.740Z,11.73
2023-02-13T18:08:17.379Z,14.10
2023-02-13T18:10:44.282Z,13.37
2023-02-13T18:13:11.445Z,13.50
2023-02-13T18:15:43.742Z,13.33
2023-02-13T18:18:12.589Z,12.20
2023-02-13T18:20:39.470Z,14.10
2023-02-13T18:23:07.263Z,12.67
2023-02-13T18:25:35.904Z,13.87
2023-02-13T18:28:02.898Z,14.20
2023-02-13T18:30:30.038Z,12.87
2023-02-13T18:32:59.234Z,13.50
2023-02-13T18:35:26.790Z,16.70
2023-02-13T18:37:53.869Z,16.80
2023-02-13T18:40:21.033Z,19.37
2023-02-13T18:42:49.696Z,28.50
2023-02-13T18:45:17.286Z,24.07
2023-02-13T18:47:44.404Z,22.90
2023-02-13T18:50:11.625Z,23.67
2023-02-13T18:52:38.508Z,16.47
2023-02-13T18:55:07.129Z,19.37
2023-02-13T18:57:35.340Z,19.20
2023-02-13T19:00:04.571Z,19.90
2023-02-13T19:02:33.405Z,28.27
2023-02-13T19:05:01.266Z,18.53
2023-02-13T19:07:28.425Z,14.70
2023-02-13T19:09:55.909Z,14.30
2023-02-13T19:12:22.958Z,14.50
2023-02-13T19:14:49.995Z,13.80
2023-02-13T19:17:17.067Z,12.93
2023-02-13T19:19:46.473Z,13.30
2023-02-13T19:22:13.666Z,13.60
2023-02-13T19:24:41.660Z,13.40
2023-02-13T19:27:08.783Z,13.13
2023-02-13T19:29:35.852Z,13.70
2023-02-13T19:32:02.875Z,14.63
2023-02-13T19:34:30.005Z,13.30
2023-02-13T19:36:57.145Z,13.17
2023-02-13T19:39:24.022Z,12.87
2023-02-13T19:41:51.721Z,12.00
2023-02-13T19:44:19.515Z,14.10
2023-02-13T19:46:47.429Z,11.30
2023-02-13T19:49:14.862Z,10.97
2023-02-13T19:51:43.247Z,12.40
2023-02-13T19:54:11.547Z,13.70
2023-02-13T19:56:40.223Z,12.43
2023-02-13T19:59:09.239Z,12.40
2023-02-13T20:01:37.762Z,11.93
2023-02-13T20:04:05.255Z,13.23
2023-02-13T20:06:36.720Z,11.73
2023-02-13T20:09:12.957Z,13.07
2023-02-13T20:11:41.662Z,13.23
2023-02-13T20:14:14.716Z,12.87
2023-02-13T20:16:43.063Z,12.63
2023-02-13T20:19:11.746Z,13.43
2023-02-13T20:21:40.993Z,13.80
2023-02-13T20:24:08.819Z,12.17
2023-02-13T20:26:35.957Z,12.80
2023-02-13T20:29:03.975Z,12.90
2023-02-13T20:31:34.822Z,12.27
2023-02-13T20:34:08.122Z,14.00
2023-02-13T20:36:35.541Z,12.87
2023-02-13T20:39:05.430Z,12.60
2023-02-13T20:41:34.304Z,12.70
2023-02-13T20:44:04.502Z,12.00
2023-02-13T20:46:34.129Z,11.73
2023-02-13T20:49:02.057Z,11.37
2023-02-13T20:51:29.796Z,12.40
2023-02-13T20:53:59.006Z,12.90
2023-02-13T20:56:26.931Z,10.43
2023-02-13T20:58:58.290Z,12.07
2023-02-13T21:01:32.632Z,12.43
2023-02-13T21:04:00.997Z,12.53
2023-02-13T21:06:36.537Z,11.30
2023-02-13T21:09:07.925Z,12.27
2023-02-13T21:11:37.114Z,11.73
2023-02-13T21:14:05.475Z,11.93
2023-02-13T21:16:37.099Z,11.73
2023-02-13T21:19:08.227Z,14.60
2023-02-13T21:21:37.467Z,13.57
2023-02-13T21:24:08.504Z,13.00
2023-02-13T21:26:35.912Z,12.20
2023-02-13T21:29:03.488Z,12.57
2023-02-13T21:31:34.239Z,13.60
2023-02-13T21:34:03.436Z,12.57
2023-02-13T21:36:31.790Z,14.40
2023-02-13T21:39:00.156Z,14.00
2023-02-13T21:41:28.110Z,12.90
2023-02-13T21:43:55.241Z,14.47
2023-02-13T21:46:25.620Z,13.00
2023-02-13T21:48:54.571Z,12.53
2023-02-13T21:51:23.166Z,12.13
2023-02-13T21:53:50.781Z,12.70
2023-02-13T21:56:21.141Z,12.60
2023-02-13T21:58:48.693Z,14.37
2023-02-13T22:01:26.020Z,12.90
2023-02-13T22:03:56.851Z,13.47
2023-02-13T22:06:26.297Z,14.07
2023-02-13T22:08:58.051Z,13.80
2023-02-13T22:11:26.135Z,13.10
2023-02-13T22:13:57.659Z,13.13
2023-02-13T22:16:24.760Z,11.77
2023-02-13T22:18:51.752Z,11.87
2023-02-13T22:21:21.500Z,13.90
2023-02-13T22:23:49.897Z,13.97
2023-02-13T22:26:20.213Z,11.97
2023-02-13T22:28:47.639Z,11.07
2023-02-13T22:31:15.785Z,13.10
2023-02-13T22:33:47.519Z,12.47
2023-02-13T22:36:18.321Z,13.27
2023-02-13T22:38:45.228Z,11.67
2023-02-13T22:41:15.361Z,12.73
2023-02-13T22:43:42.894Z,11.77
2023-02-13T22:46:12.574Z,13.40
2023-02-13T22:48:40.527Z,13.47
2023-02-13T22:51:09.799Z,12.47
2023-02-13T22:53:37.780Z,12.60
2023-02-13T22:56:06.642Z,12.33
2023-02-13T22:58:33.669Z,11.73
2023-02-13T23:01:00.873Z,13.40
2023-02-13T23:03:31.127Z,13.87
2023-02-13T23:05:58.257Z,13.93
2023-02-13T23:08:25.211Z,14.50
2023-02-13T23:11:10.549Z,12.97
2023-02-13T23:13:37.486Z,13.00
2023-02-13T23:16:11.659Z,12.80
2023-02-13T23:18:38.658Z,12.60
2023-02-13T23:21:07.194Z,11.77
2023-02-13T23:23:41.379Z,12.90
2023-02-13T23:26:09.146Z,13.07
2023-02-13T23:28:36.343Z,12.10
2023-02-13T23:31:03.812Z,12.30
2023-02-13T23:33:32.612Z,11.30
2023-02-13T23:35:59.967Z,12.37
2023-02-13T23:38:27.363Z,13.60
2023-02-13T23:40:54.263Z,12.67
2023-02-13T23:43:22.220Z,13.20
2023-02-13T23:45:49.789Z,13.43
2023-02-13T23:48:16.743Z,11.70
2023-02-13T23:50:43.649Z,12.83
2023-02-13T23:53:10.963Z,11.77
2023-02-13T23:55:38.435Z,14.17
2023-02-13T23:58:05.258Z,11.93
